Time;durP1;ratioP1;P1;durP2;ratioP2;P2;SDS_P1;SDS_P2;PMS_P1;PMS_P2;Temp;Humidity;BMP_temperature;BMP_pressure;BME280_temperature;BME280_humidity;BME280_pressure;Samples;Min_cycle;Max_cycle;Signal;HPM_P1;HPM_P2
2023/04/21 00:02:03;;;;;;;16.13;11.55;;;15.30;69.20;;;;;;4194745;28;20175;-63
2023/04/21 00:04:46;;;;;;;14.93;11.43;;;15.20;69.90;;;;;;4194747;28;20059;-63
2023/04/21 00:07:29;;;;;;;16.73;10.88;;;15.20;69.20;;;;;;4178016;28;20484;-62
2023/04/21 00:10:11;;;;;;;14.60;11.18;;;15.20;69.20;;;;;;4178023;28;20052;-62
2023/04/21 00:12:52;;;;;;;14.98;11.30;;;15.20;69.30;;;;;;4178083;28;20044;-62
2023/04/21 00:15:33;;;;;;;16.50;11.32;;;15.20;69.30;;;;;;4182152;28;20051;-62
2023/04/21 00:18:15;;;;;;;15.05;10.52;;;15.20;69.10;;;;;;4176713;28;20055;-62
2023/04/21 00:20:58;;;;;;;16.70;10.73;;;15.20;69.00;;;;;;4178094;28;20044;-63
2023/04/21 00:23:38;;;;;;;16.83;11.27;;;15.20;68.90;;;;;;4177896;28;20183;-63
2023/04/21 00:26:20;;;;;;;19.13;12.15;;;15.20;69.90;;;;;;4191548;28;20059;-66
2023/04/21 00:29:02;;;;;;;19.30;10.82;;;15.30;68.60;;;;;;4177928;28;20396;-66
2023/04/21 00:31:44;;;;;;;17.83;11.48;;;15.40;68.20;;;;;;4176624;28;20518;-67
2023/04/21 00:34:24;;;;;;;18.60;12.32;;;15.50;67.60;;;;;;4177748;28;20118;-66
2023/04/21 00:37:06;;;;;;;15.40;10.50;;;15.60;67.40;;;;;;4193144;28;20051;-66
2023/04/21 00:39:47;;;;;;;16.38;10.80;;;15.60;67.10;;;;;;4192965;28;20067;-66
2023/04/21 00:42:29;;;;;;;15.97;11.87;;;15.60;67.10;;;;;;4192945;28;20056;-69
2023/04/21 00:45:10;;;;;;;17.52;11.35;;;15.60;66.90;;;;;;4193726;28;20055;-67
2023/04/21 00:47:51;;;;;;;16.17;11.15;;;15.60;67.10;;;;;;4177424;28;20510;-67
2023/04/21 00:50:32;;;;;;;14.85;11.40;;;15.50;67.40;;;;;;4176380;28;20055;-66
2023/04/21 00:53:15;;;;;;;20.53;10.97;;;15.50;67.50;;;;;;4175415;28;20507;-67
2023/04/21 00:55:57;;;;;;;13.77;10.90;;;15.60;67.10;;;;;;4189201;28;20058;-66
2023/04/21 00:58:41;;;;;;;15.23;11.50;;;15.60;67.00;;;;;;4192904;28;20518;-66
2023/04/21 01:01:23;;;;;;;15.60;11.55;;;15.60;66.90;;;;;;4192625;28;20047;-66
2023/04/21 01:04:04;;;;;;;;;;;15.60;66.80;;;;;;4194402;28;20521;-62
2023/04/21 01:06:46;;;;;;;14.30;10.90;;;15.60;66.70;;;;;;4192115;28;19931;-62
2023/04/21 01:09:28;;;;;;;16.45;11.13;;;15.70;66.50;;;;;;4193837;28;20056;-62
2023/04/21 01:12:11;;;;;;;14.95;11.07;;;15.70;66.40;;;;;;4192542;28;20043;-62
2023/04/21 01:14:51;;;;;;;12.68;10.32;;;15.70;66.30;;;;;;4193646;28;20125;-63
2023/04/21 01:17:37;;;;;;;13.45;10.38;;;15.70;66.40;;;;;;4191969;28;20043;-62
2023/04/21 01:20:18;;;;;;;14.50;11.18;;;15.70;66.10;;;;;;4192003;28;20052;-63
2023/04/21 01:23:01;;;;;;;13.65;10.57;;;15.70;66.90;;;;;;4193348;28;20097;-63
2023/04/21 01:25:42;;;;;;;17.85;10.77;;;15.70;65.90;;;;;;4191496;28;20043;-65
2023/04/21 01:28:23;;;;;;;16.23;9.88;;;15.70;65.80;;;;;;4192991;28;20059;-64
2023/04/21 01:31:05;;;;;;;17.92;11.38;;;15.70;66.00;;;;;;4191652;28;20059;-64
2023/04/21 01:33:46;;;;;;;14.25;10.90;;;15.70;66.10;;;;;;4192354;28;20051;-64
2023/04/21 01:36:26;;;;;;;15.05;11.68;;;15.60;66.00;;;;;;4190276;28;20121;-62
2023/04/21 01:39:09;;;;;;;15.48;11.80;;;15.60;66.00;;;;;;4176498;28;20518;-62
2023/04/21 01:41:49;;;;;;;13.40;11.48;;;15.60;66.00;;;;;;4176628;28;20107;-66
2023/04/21 01:44:31;;;;;;;14.25;10.60;;;15.70;65.90;;;;;;4182982;28;20059;-67
2023/04/21 01:47:12;;;;;;;15.43;10.52;;;15.70;65.80;;;;;;4192835;28;20067;-68
2023/04/21 01:49:53;;;;;;;14.50;11.30;;;15.60;65.90;;;;;;4192887;28;20129;-67
2023/04/21 01:52:34;;;;;;;16.13;11.18;;;15.60;65.90;;;;;;4193028;28;20055;-67
2023/04/21 01:55:17;;;;;;;15.80;10.73;;;15.60;66.10;;;;;;4192159;28;20477;-66
2023/04/21 01:57:58;;;;;;;12.32;10.38;;;15.70;66.20;;;;;;4175949;28;20052;-66
2023/04/21 02:00:39;;;;;;;14.90;11.60;;;15.70;66.10;;;;;;4175167;28;20051;-66
2023/04/21 02:03:20;;;;;;;14.77;11.68;;;15.70;65.80;;;;;;4176232;28;20199;-66
2023/04/21 02:06:01;;;;;;;13.98;10.43;;;15.70;65.40;;;;;;4185183;28;20379;-66
2023/04/21 02:08:41;;;;;;;18.27;11.23;;;15.70;65.50;;;;;;4176047;28;20056;-66
2023/04/21 02:11:24;;;;;;;16.37;11.33;;;15.70;65.30;;;;;;4176418;28;20720;-66
2023/04/21 02:14:05;;;;;;;13.73;10.57;;;15.80;65.30;;;;;;4182911;28;20121;-66
2023/04/21 02:16:46;;;;;;;16.27;11.10;;;15.80;65.10;;;;;;4191357;28;20182;-66
2023/04/21 02:19:26;;;;;;;14.63;10.95;;;15.80;65.00;;;;;;4192497;28;20064;-66
2023/04/21 02:22:09;;;;;;;16.42;10.85;;;15.80;65.90;;;;;;4191486;28;20411;-66
2023/04/21 02:24:50;;;;;;;13.98;11.85;;;15.80;65.00;;;;;;4191985;28;20051;-67
2023/04/21 02:27:33;;;;;;;18.73;11.85;;;15.70;65.10;;;;;;4192564;28;20044;-67
2023/04/21 02:30:15;;;;;;;17.58;12.20;;;15.60;65.30;;;;;;4192320;28;20060;-67
2023/04/21 02:32:55;;;;;;;16.70;12.07;;;15.60;65.70;;;;;;4191333;28;20051;-67
2023/04/21 02:35:36;;;;;;;14.15;11.23;;;15.60;65.50;;;;;;4192344;28;20044;-67
2023/04/21 02:38:17;;;;;;;16.85;11.18;;;15.70;66.20;;;;;;4192532;28;20661;-67
2023/04/21 02:40:58;;;;;;;16.15;10.82;;;15.70;65.20;;;;;;4191423;28;20147;-66
2023/04/21 02:43:40;;;;;;;17.60;11.73;;;15.70;65.30;;;;;;4174553;28;20407;-67
2023/04/21 02:46:21;;;;;;;15.57;11.10;;;15.70;65.20;;;;;;4175615;28;20118;-67
2023/04/21 02:49:02;;;;;;;14.45;10.88;;;15.70;65.30;;;;;;4174654;28;20052;-68
2023/04/21 02:51:43;;;;;;;15.35;11.63;;;15.80;66.00;;;;;;4201270;28;20101;-66
2023/04/21 02:54:23;;;;;;;16.38;11.60;;;15.80;65.00;;;;;;4192362;28;20063;-66
2023/04/21 02:57:04;;;;;;;18.58;11.88;;;15.80;65.40;;;;;;4191204;28;20469;-66
2023/04/21 02:59:47;;;;;;;16.65;11.40;;;15.80;64.50;;;;;;4190731;28;20051;-66
2023/04/21 03:02:28;;;;;;;15.98;11.45;;;15.80;64.60;;;;;;4179559;28;20079;-66
2023/04/21 03:05:10;;;;;;;15.93;11.23;;;15.70;64.60;;;;;;4191959;28;20056;-66
2023/04/21 03:07:50;;;;;;;14.63;10.75;;;15.70;64.70;;;;;;4191261;28;20061;-66
2023/04/21 03:10:31;;;;;;;13.50;10.98;;;15.60;65.90;;;;;;4192033;28;20102;-66
2023/04/21 03:13:12;;;;;;;14.40;11.15;;;15.50;66.00;;;;;;4192081;28;20056;-61
2023/04/21 03:15:54;;;;;;;15.50;10.77;;;15.50;65.40;;;;;;4180260;28;20125;-62
2023/04/21 03:18:35;;;;;;;15.88;11.10;;;15.50;65.60;;;;;;4195196;28;20082;-66
2023/04/21 03:21:17;;;;;;;15.68;12.18;;;15.50;65.40;;;;;;4193764;28;20613;-66
2023/04/21 03:23:58;;;;;;;19.05;11.63;;;15.50;65.20;;;;;;4194168;28;20068;-66
2023/04/21 03:26:39;;;;;;;13.73;11.60;;;15.50;65.00;;;;;;4195276;28;20078;-66
2023/04/21 03:29:21;;;;;;;13.77;10.82;;;15.50;65.90;;;;;;4193879;28;20329;-66
2023/04/21 03:32:03;;;;;;;18.50;9.65;;;15.50;65.00;;;;;;4194964;28;20052;-66
2023/04/21 03:34:44;;;;;;;18.58;11.82;;;15.60;65.10;;;;;;4194942;28;20059;-66
2023/04/21 03:37:25;;;;;;;18.27;11.07;;;15.60;64.80;;;;;;4195164;28;20051;-66
2023/04/21 03:40:07;;;;;;;14.43;11.73;;;15.60;64.70;;;;;;4177254;28;20127;-66
2023/04/21 03:42:48;;;;;;;15.70;10.80;;;15.60;64.90;;;;;;4177261;28;20064;-66
2023/04/21 03:45:29;;;;;;;15.07;11.15;;;15.60;64.80;;;;;;4193770;28;20059;-66
2023/04/21 03:48:13;;;;;;;17.55;12.15;;;15.50;65.70;;;;;;4193693;28;20411;-66
2023/04/21 03:50:54;;;;;;;14.73;11.75;;;15.50;65.20;;;;;;4194260;28;20185;-66
2023/04/21 03:53:35;;;;;;;14.95;11.27;;;15.50;65.10;;;;;;4193586;28;20071;-66
2023/04/21 03:56:16;;;;;;;15.77;11.57;;;15.60;64.80;;;;;;4177791;28;20511;-67
2023/04/21 03:58:57;;;;;;;17.05;11.20;;;15.60;64.80;;;;;;4189339;28;20060;-65
2023/04/21 04:01:38;;;;;;;14.88;10.68;;;15.70;64.50;;;;;;4194533;28;20494;-66
2023/04/21 04:04:20;;;;;;;14.93;12.00;;;15.70;64.50;;;;;;4194578;28;20044;-66
2023/04/21 04:07:02;;;;;;;12.57;10.02;;;15.80;65.10;;;;;;4194481;28;20055;-66
2023/04/21 04:09:43;;;;;;;15.93;10.90;;;15.80;64.20;;;;;;4178039;28;20138;-66
2023/04/21 04:12:24;;;;;;;15.13;11.07;;;15.80;63.90;;;;;;4176571;28;20056;-66
2023/04/21 04:15:06;;;;;;;15.25;10.73;;;15.80;64.00;;;;;;4191928;28;20155;-66
2023/04/21 04:17:47;;;;;;;14.30;10.80;;;15.80;64.00;;;;;;4194343;28;20132;-66
2023/04/21 04:20:29;;;;;;;14.98;11.57;;;15.80;64.10;;;;;;4192843;28;20093;-66
2023/04/21 04:23:11;;;;;;;12.60;9.73;;;15.80;64.00;;;;;;4194187;28;20122;-66
2023/04/21 04:25:51;;;;;;;13.85;10.13;;;15.80;64.10;;;;;;4194394;28;20590;-66
2023/04/21 04:28:33;;;;;;;13.73;9.85;;;15.70;64.30;;;;;;4193034;28;20101;-68
2023/04/21 04:31:15;;;;;;;12.90;9.88;;;15.70;64.20;;;;;;4193820;28;20086;-67
2023/04/21 04:33:57;;;;;;;12.05;10.00;;;15.70;64.20;;;;;;4193632;28;20059;-63
2023/04/21 04:36:39;;;;;;;16.77;11.45;;;15.60;64.50;;;;;;4193766;28;20059;-63
2023/04/21 04:39:21;;;;;;;14.02;10.40;;;15.50;64.60;;;;;;4193804;28;20051;-62
2023/04/21 04:42:02;;;;;;;17.35;11.02;;;15.60;65.70;;;;;;4193771;28;20097;-62
2023/04/21 04:44:43;;;;;;;12.80;10.63;;;15.60;64.60;;;;;;4193947;28;20059;-62
2023/04/21 04:47:24;;;;;;;;;;;15.70;64.40;;;;;;4192830;28;20470;-62
2023/04/21 04:50:07;;;;;;;12.63;9.77;;;15.80;64.30;;;;;;4194106;28;19958;-62
2023/04/21 04:52:50;;;;;;;;;;;15.70;63.90;;;;;;4194267;28;20105;-60
2023/04/21 04:55:30;;;;;;;13.20;9.23;;;15.70;64.00;;;;;;4178433;28;20014;-63
2023/04/21 04:58:11;;;;;;;11.55;9.40;;;15.70;64.20;;;;;;4193636;28;20504;-62
2023/04/21 05:00:52;;;;;;;12.25;9.80;;;15.60;64.30;;;;;;4192432;28;20544;-62
2023/04/21 05:03:33;;;;;;;15.68;10.20;;;15.60;64.50;;;;;;4193317;28;20066;-63
2023/04/21 05:06:14;;;;;;;16.15;9.60;;;15.60;64.90;;;;;;4193428;28;20051;-64
2023/04/21 05:08:56;;;;;;;12.53;9.37;;;15.70;65.00;;;;;;4193029;28;20047;-63
2023/04/21 05:11:38;;;;;;;15.52;9.43;;;15.70;64.70;;;;;;4192733;28;20383;-63
2023/04/21 05:14:18;;;;;;;15.07;10.13;;;15.80;64.50;;;;;;4183137;28;20117;-64
2023/04/21 05:16:59;;;;;;;12.35;7.85;;;15.80;64.30;;;;;;4191757;28;20082;-64
2023/04/21 05:19:40;;;;;;;13.45;8.75;;;15.80;64.40;;;;;;4193089;28;20549;-63
2023/04/21 05:22:21;;;;;;;12.85;10.15;;;15.80;65.20;;;;;;4192967;28;20808;-64
2023/04/21 05:25:04;;;;;;;19.60;10.50;;;15.80;64.10;;;;;;4193126;28;20113;-63
2023/04/21 05:27:44;;;;;;;12.00;9.02;;;15.70;63.80;;;;;;4193283;28;20398;-63
2023/04/21 05:30:26;;;;;;;15.02;9.60;;;15.60;64.30;;;;;;4192263;28;20125;-63
2023/04/21 05:33:08;;;;;;;10.90;8.27;;;15.60;64.70;;;;;;4193112;28;20052;-64
2023/04/21 05:35:49;;;;;;;13.20;9.25;;;15.50;65.20;;;;;;4190857;28;20285;-63
2023/04/21 05:38:30;;;;;;;15.68;9.90;;;15.50;65.60;;;;;;4191904;28;20074;-64
2023/04/21 05:41:12;;;;;;;11.55;9.55;;;15.50;66.30;;;;;;4191216;28;20051;-63
2023/04/21 05:43:53;;;;;;;12.80;9.07;;;15.50;65.40;;;;;;4192749;28;20113;-63
2023/04/21 05:46:34;;;;;;;14.65;8.48;;;15.50;65.70;;;;;;4192776;28;20189;-64
2023/04/21 05:49:15;;;;;;;11.77;9.27;;;15.50;65.90;;;;;;4192882;28;20060;-63
2023/04/21 05:51:56;;;;;;;14.50;9.20;;;15.50;66.10;;;;;;4192902;28;20121;-63
2023/04/21 05:54:39;;;;;;;9.63;8.60;;;15.40;66.20;;;;;;4191495;28;20046;-63
2023/04/21 05:57:21;;;;;;;12.85;9.35;;;15.40;66.00;;;;;;4175042;28;20388;-63
2023/04/21 06:00:02;;;;;;;12.23;9.75;;;15.40;66.20;;;;;;4174965;28;20059;-63
2023/04/21 06:02:45;;;;;;;16.23;9.25;;;15.40;66.20;;;;;;4188450;28;20059;-63
2023/04/21 06:05:26;;;;;;;12.10;8.73;;;15.40;66.40;;;;;;4191658;28;20383;-63
2023/04/21 06:08:06;;;;;;;12.65;8.95;;;15.30;66.40;;;;;;4193067;28;20403;-67
2023/04/21 06:10:48;;;;;;;9.80;8.07;;;15.30;66.80;;;;;;4192823;28;20063;-67
2023/04/21 06:13:30;;;;;;;10.32;6.63;;;15.30;67.10;;;;;;4192487;28;20513;-67
2023/04/21 06:16:11;;;;;;;10.98;8.27;;;15.30;67.10;;;;;;4191249;28;20117;-68
2023/04/21 06:18:52;;;;;;;17.58;8.85;;;15.30;67.40;;;;;;4192253;28;20127;-67
2023/04/21 06:21:33;;;;;;;13.93;8.87;;;15.30;67.40;;;;;;4192639;28;20055;-67
2023/04/21 06:24:14;;;;;;;10.77;8.48;;;15.30;67.60;;;;;;4191022;28;20059;-67
2023/04/21 06:26:55;;;;;;;10.13;8.23;;;15.30;67.90;;;;;;4174346;28;20051;-67
2023/04/21 06:29:37;;;;;;;12.57;8.30;;;15.40;67.90;;;;;;4176089;28;20384;-67
2023/04/21 06:32:17;;;;;;;11.10;8.82;;;15.40;67.90;;;;;;4191153;28;20753;-67
2023/04/21 06:34:58;;;;;;;11.70;8.23;;;15.50;68.00;;;;;;4192395;28;20538;-67
2023/04/21 06:37:39;;;;;;;16.52;8.60;;;15.50;68.00;;;;;;4192153;28;20051;-69
2023/04/21 06:40:20;;;;;;;13.45;8.30;;;15.50;68.30;;;;;;4191467;28;20052;-69
2023/04/21 06:43:01;;;;;;;13.75;7.97;;;15.50;69.20;;;;;;4190449;28;20059;-69
2023/04/21 06:45:43;;;;;;;13.10;8.63;;;15.60;68.60;;;;;;4188692;28;20063;-68
2023/04/21 06:48:25;;;;;;;12.32;8.10;;;15.60;68.60;;;;;;4191696;28;20501;-68
2023/04/21 06:51:06;;;;;;;12.60;7.63;;;15.60;68.70;;;;;;4174269;28;20094;-69
2023/04/21 06:53:47;;;;;;;16.33;8.40;;;15.70;69.10;;;;;;4178026;28;20174;-67
2023/04/21 06:56:27;;;;;;;15.20;9.20;;;15.70;69.30;;;;;;4175468;28;20087;-67
2023/04/21 06:59:08;;;;;;;14.23;9.20;;;15.70;69.10;;;;;;4182236;28;20043;-64
2023/04/21 07:01:51;;;;;;;13.32;9.35;;;15.70;69.20;;;;;;4192073;28;20146;-64
2023/04/21 07:04:32;;;;;;;14.07;8.15;;;15.80;69.20;;;;;;4191892;28;20052;-64
2023/04/21 07:07:13;;;;;;;19.30;8.82;;;15.80;69.20;;;;;;4182031;28;20051;-64
2023/04/21 07:09:54;;;;;;;12.30;8.52;;;15.80;69.30;;;;;;4191527;28;20059;-64
2023/04/21 07:12:35;;;;;;;11.77;8.18;;;15.80;69.40;;;;;;4191880;28;20125;-64
2023/04/21 07:15:16;;;;;;;13.65;8.18;;;15.70;69.60;;;;;;4191066;28;20077;-64
2023/04/21 07:17:58;;;;;;;13.95;8.70;;;15.80;69.80;;;;;;4191980;28;20055;-64
2023/04/21 07:20:39;;;;;;;16.10;9.52;;;15.80;69.90;;;;;;4191623;28;20105;-67
2023/04/21 07:23:20;;;;;;;13.77;7.70;;;15.80;70.00;;;;;;4185349;28;20057;-68
2023/04/21 07:26:01;;;;;;;10.18;8.23;;;15.90;69.90;;;;;;4175399;28;20419;-67
2023/04/21 07:28:42;;;;;;;13.70;8.35;;;15.80;69.60;;;;;;4190506;28;20538;-66
2023/04/21 07:31:23;;;;;;;13.20;8.45;;;15.90;69.80;;;;;;4190300;28;20118;-66
2023/04/21 07:34:06;;;;;;;13.75;8.55;;;15.80;69.90;;;;;;4175412;28;20078;-68
2023/04/21 07:36:47;;;;;;;15.40;7.93;;;15.90;70.10;;;;;;4185825;28;20126;-66
2023/04/21 07:39:27;;;;;;;14.75;9.15;;;15.90;70.60;;;;;;4190975;28;20415;-66
2023/04/21 07:42:09;;;;;;;13.18;8.10;;;15.90;71.60;;;;;;4191391;28;20662;-66
2023/04/21 07:44:51;;;;;;;11.52;6.80;;;15.90;70.60;;;;;;4175356;28;20059;-67
2023/04/21 07:47:32;;;;;;;;;;;15.90;70.20;;;;;;4185099;28;20600;-66
2023/04/21 07:50:15;;;;;;;11.50;8.60;;;15.90;70.40;;;;;;4191615;28;19927;-66
2023/04/21 07:52:56;;;;;;;15.35;8.07;;;16.00;70.50;;;;;;4191181;28;20435;-66
2023/04/21 07:55:36;;;;;;;17.27;9.43;;;16.00;70.30;;;;;;4191434;28;20059;-66
2023/04/21 07:58:17;;;;;;;12.60;8.90;;;16.00;70.70;;;;;;4177069;28;20130;-66
2023/04/21 08:00:58;;;;;;;16.80;8.57;;;16.00;70.50;;;;;;4175149;28;20048;-66
2023/04/21 08:03:39;;;;;;;13.27;8.77;;;16.00;70.80;;;;;;4178057;28;20160;-63
2023/04/21 08:06:22;;;;;;;17.90;8.38;;;16.00;70.60;;;;;;4193001;28;20335;-67
2023/04/21 08:09:03;;;;;;;16.52;9.35;;;16.10;70.70;;;;;;4186454;28;20056;-67
2023/04/21 08:11:44;;;;;;;17.17;9.35;;;16.10;70.70;;;;;;4194218;28;20190;-68
2023/04/21 08:14:25;;;;;;;12.60;8.37;;;16.10;70.80;;;;;;4192501;28;20056;-66
2023/04/21 08:17:07;;;;;;;13.70;8.48;;;16.10;71.70;;;;;;4189673;28;20051;-65
2023/04/21 08:19:48;;;;;;;13.27;8.10;;;16.20;70.80;;;;;;4194259;28;20059;-65
2023/04/21 08:22:30;;;;;;;13.15;9.15;;;16.20;70.40;;;;;;4194021;28;20047;-64
2023/04/21 08:25:11;;;;;;;19.45;9.07;;;16.20;70.70;;;;;;4193727;28;20051;-67
2023/04/21 08:27:52;;;;;;;18.77;9.23;;;16.30;70.40;;;;;;4194174;28;20047;-66
2023/04/21 08:30:33;;;;;;;13.35;8.63;;;16.30;70.50;;;;;;4193719;28;20281;-66
2023/04/21 08:33:14;;;;;;;13.60;9.15;;;16.30;70.50;;;;;;4194304;28;20047;-67
2023/04/21 08:35:55;;;;;;;13.90;9.20;;;16.30;70.40;;;;;;4194138;28;20163;-66
2023/04/21 08:38:43;;;;;;;13.40;8.60;;;16.40;70.50;;;;;;4193790;28;20060;-66
2023/04/21 08:41:25;;;;;;;14.75;8.93;;;16.40;70.60;;;;;;4193616;28;20048;-65
2023/04/21 08:44:05;;;;;;;10.73;8.35;;;16.40;70.60;;;;;;4194009;28;20154;-65
2023/04/21 08:46:48;;;;;;;15.02;8.98;;;16.40;70.30;;;;;;4193720;28;20086;-64
2023/04/21 08:49:31;;;;;;;14.40;8.40;;;16.40;70.40;;;;;;4193680;28;20097;-64
2023/04/21 08:52:13;;;;;;;16.40;8.38;;;16.50;70.70;;;;;;4192924;28;20047;-64
2023/04/21 08:54:56;;;;;;;17.55;8.38;;;16.50;70.60;;;;;;4194124;28;20052;-64
2023/04/21 08:57:37;;;;;;;11.25;8.55;;;16.50;70.40;;;;;;4185000;28;20182;-64
2023/04/21 09:00:19;;;;;;;11.02;9.02;;;16.50;70.20;;;;;;4192799;28;20453;-64
2023/04/21 09:03:01;;;;;;;14.80;9.40;;;16.50;70.10;;;;;;4193324;28;20495;-65
2023/04/21 09:05:42;;;;;;;13.20;8.55;;;16.60;70.30;;;;;;4193677;28;20065;-65
2023/04/21 09:08:24;;;;;;;10.70;7.95;;;16.60;70.50;;;;;;4193823;28;20502;-65
2023/04/21 09:11:06;;;;;;;13.90;8.23;;;16.60;70.10;;;;;;4193633;28;20129;-65
2023/04/21 09:13:47;;;;;;;13.60;8.50;;;16.60;69.40;;;;;;4192706;28;20064;-65
2023/04/21 09:16:31;;;;;;;12.80;8.93;;;16.60;70.50;;;;;;4193535;28;20129;-65
2023/04/21 09:19:15;;;;;;;14.27;8.52;;;16.70;70.00;;;;;;4193334;28;20506;-65
2023/04/21 09:21:56;;;;;;;14.48;8.20;;;16.70;69.60;;;;;;4193642;28;20051;-64
2023/04/21 09:24:36;;;;;;;11.70;7.57;;;16.70;69.60;;;;;;4193506;28;20093;-65
2023/04/21 09:27:21;;;;;;;17.35;8.30;;;16.70;69.60;;;;;;4176985;28;20123;-64
2023/04/21 09:30:04;;;;;;;14.65;8.82;;;16.70;70.40;;;;;;4186008;28;20056;-64
2023/04/21 09:32:45;;;;;;;17.77;8.90;;;16.80;69.30;;;;;;4193221;28;20051;-64
2023/04/21 09:35:28;;;;;;;13.23;8.02;;;16.80;69.10;;;;;;4192247;28;20407;-64
2023/04/21 09:38:11;;;;;;;15.05;7.85;;;16.80;68.80;;;;;;4188288;28;20052;-63
2023/04/21 09:40:57;;;;;;;11.85;7.63;;;16.80;68.70;;;;;;4191785;28;20403;-64
2023/04/21 09:43:39;;;;;;;11.52;7.90;;;16.90;68.60;;;;;;4192989;28;20618;-64
2023/04/21 09:46:20;;;;;;;12.48;7.88;;;16.90;68.50;;;;;;4175026;28;20499;-64
2023/04/21 09:49:02;;;;;;;11.43;7.55;;;17.00;68.50;;;;;;4175537;28;20060;-64
2023/04/21 09:51:43;;;;;;;;;;;17.00;68.20;;;;;;4179799;28;20059;-64
2023/04/21 09:54:50;;;;;;;17.50;7.78;;;17.00;68.00;;;;;;4192574;28;19927;-64
2023/04/21 09:57:32;;;;;;;13.98;8.10;;;17.00;68.00;;;;;;4192559;28;20044;-64
2023/04/21 10:00:17;;;;;;;14.77;7.68;;;17.10;68.00;;;;;;4192859;28;20055;-64
2023/04/21 10:03:00;;;;;;;11.73;6.70;;;17.10;67.50;;;;;;4192434;28;20059;-64
2023/04/21 10:05:42;;;;;;;13.90;7.45;;;17.10;67.30;;;;;;4192344;28;20051;-64
2023/04/21 10:08:24;;;;;;;24.73;9.40;;;17.10;67.10;;;;;;4192339;28;20056;-64
2023/04/21 10:11:06;;;;;;;14.80;7.72;;;17.20;67.20;;;;;;4192612;28;20098;-64
2023/04/21 10:13:48;;;;;;;15.93;8.70;;;17.20;67.10;;;;;;4190090;28;20055;-64
2023/04/21 10:16:30;;;;;;;14.40;8.07;;;17.30;67.00;;;;;;4192665;28;20051;-64
2023/04/21 10:19:24;;;;;;;16.20;8.25;;;17.30;67.00;;;;;;4180905;28;20063;-64
2023/04/21 10:22:07;;;;;;;14.23;7.95;;;17.30;66.80;;;;;;4184996;28;20177;-64
2023/04/21 10:24:49;;;;;;;15.27;8.20;;;17.40;66.80;;;;;;4192144;28;20075;-64
2023/04/21 10:27:35;;;;;;;11.80;7.70;;;17.40;66.60;;;;;;4174423;28;20090;-64
2023/04/21 10:30:21;;;;;;;10.55;7.40;;;17.40;66.80;;;;;;4189760;28;20047;-64
2023/04/21 10:33:05;;;;;;;10.77;7.10;;;17.40;66.50;;;;;;4192138;28;20056;-64
2023/04/21 10:36:00;;;;;;;11.43;7.40;;;17.50;66.60;;;;;;4192604;28;20060;-63
2023/04/21 10:38:43;;;;;;;10.18;6.78;;;17.50;66.40;;;;;;4191750;28;20063;-64
2023/04/21 10:41:27;;;;;;;13.00;6.43;;;17.50;65.90;;;;;;4175822;28;20102;-63
2023/04/21 10:44:13;;;;;;;14.85;7.00;;;17.50;65.80;;;;;;4184964;28;20055;-66
2023/04/21 10:46:55;;;;;;;8.98;6.68;;;17.60;65.60;;;;;;4191824;28;20159;-66
2023/04/21 10:49:40;;;;;;;7.63;6.13;;;17.60;66.30;;;;;;4191374;28;20056;-63
2023/04/21 10:52:21;;;;;;;10.57;6.30;;;17.60;65.20;;;;;;4191704;28;20048;-63
2023/04/21 10:55:11;;;;;;;9.98;6.38;;;17.60;65.20;;;;;;4192198;28;20155;-64
2023/04/21 10:57:52;;;;;;;7.38;5.93;;;17.70;65.20;;;;;;4181666;28;20060;-64
2023/04/21 11:00:33;;;;;;;12.15;5.75;;;17.70;64.80;;;;;;4189601;28;20510;-64
2023/04/21 11:03:14;;;;;;;11.88;7.20;;;17.70;64.50;;;;;;4191849;28;20186;-64
2023/04/21 11:05:56;;;;;;;14.25;6.07;;;17.70;64.30;;;;;;4175774;28;20049;-64
2023/04/21 11:08:55;;;;;;;8.13;5.53;;;17.80;64.20;;;;;;4175577;28;20051;-64
2023/04/21 11:11:36;;;;;;;8.70;5.88;;;17.80;63.80;;;;;;4184043;28;20075;-66
2023/04/21 11:14:17;;;;;;;;;;;17.80;63.90;;;;;;4192745;28;20056;-65
2023/04/21 11:16:58;;;;;;;11.17;5.73;;;17.80;64.00;;;;;;4192086;28;20047;-64
2023/04/21 11:19:39;;;;;;;8.93;6.13;;;17.80;65.00;;;;;;4189946;28;20282;-63
2023/04/21 11:22:23;;;;;;;7.70;5.40;;;17.80;64.00;;;;;;4192040;28;20486;-63
2023/04/21 11:25:05;;;;;;;9.82;5.35;;;17.90;63.80;;;;;;4191927;28;20150;-63
2023/04/21 11:27:55;;;;;;;13.90;5.68;;;17.90;63.70;;;;;;4191734;28;20051;-63
2023/04/21 11:30:36;;;;;;;10.48;5.65;;;17.90;64.00;;;;;;4191523;28;20066;-64
2023/04/21 11:33:16;;;;;;;7.90;5.57;;;17.90;63.70;;;;;;4191187;28;20170;-65
2023/04/21 11:35:59;;;;;;;7.13;5.18;;;18.00;64.00;;;;;;4190935;28;20379;-64
2023/04/21 11:38:42;;;;;;;11.75;5.97;;;18.00;63.40;;;;;;4194531;28;20089;-64
2023/04/21 11:41:23;;;;;;;13.25;5.85;;;18.00;63.20;;;;;;4185869;28;20162;-66
2023/04/21 11:44:04;;;;;;;7.38;5.40;;;18.00;63.10;;;;;;4194500;28;20093;-64
2023/04/21 11:46:46;;;;;;;7.95;4.82;;;18.00;62.70;;;;;;4194908;28;20060;-64
2023/04/21 11:49:29;;;;;;;9.00;5.07;;;18.00;62.80;;;;;;4178264;28;20051;-64
2023/04/21 11:52:11;;;;;;;9.63;4.78;;;18.10;62.90;;;;;;4192108;28;20055;-64
2023/04/21 11:54:58;;;;;;;9.95;5.43;;;18.10;62.90;;;;;;4194677;28;20059;-63
2023/04/21 11:57:40;;;;;;;8.38;4.95;;;18.10;61.80;;;;;;4194377;28;20528;-64
2023/04/21 12:00:21;;;;;;;11.07;4.93;;;18.10;62.40;;;;;;4194247;28;20569;-64
2023/04/21 12:03:02;;;;;;;10.10;5.20;;;18.10;62.10;;;;;;4193074;28;20623;-64
2023/04/21 12:05:43;;;;;;;5.75;4.80;;;18.10;62.20;;;;;;4193883;28;20298;-64
2023/04/21 12:08:24;;;;;;;6.05;4.60;;;18.20;62.00;;;;;;4187183;28;20051;-64
2023/04/21 12:11:06;;;;;;;12.95;6.03;;;18.20;61.20;;;;;;4194400;28;20498;-64
2023/04/21 12:13:47;;;;;;;9.20;5.70;;;18.20;61.80;;;;;;4194421;28;20058;-64
2023/04/21 12:16:29;;;;;;;13.27;6.07;;;18.20;61.50;;;;;;4194525;28;20044;-64
2023/04/21 12:19:10;;;;;;;8.48;5.22;;;18.20;61.30;;;;;;4193961;28;20518;-64
2023/04/21 12:21:54;;;;;;;5.65;3.70;;;18.20;60.20;;;;;;4194294;28;20502;-64
2023/04/21 12:24:35;;;;;;;6.57;4.60;;;18.20;60.80;;;;;;4193487;28;20071;-64
2023/04/21 12:27:20;;;;;;;5.40;4.30;;;18.20;61.00;;;;;;4192247;28;20051;-64
2023/04/21 12:30:02;;;;;;;8.15;4.25;;;18.30;60.40;;;;;;4177673;28;20055;-64
2023/04/21 12:32:44;;;;;;;6.90;4.43;;;18.30;60.70;;;;;;4193168;28;20051;-64
2023/04/21 12:35:26;;;;;;;9.90;5.28;;;18.30;60.90;;;;;;4193251;28;20499;-64
2023/04/21 12:38:06;;;;;;;11.15;4.65;;;18.30;61.00;;;;;;4193764;28;20157;-65
2023/04/21 12:40:48;;;;;;;7.68;5.25;;;18.40;60.90;;;;;;4194341;28;20101;-65
2023/04/21 12:43:30;;;;;;;9.55;5.20;;;18.40;60.40;;;;;;4193929;28;20186;-65
2023/04/21 12:46:11;;;;;;;10.70;4.75;;;18.40;60.30;;;;;;4188376;28;20161;-66
2023/04/21 12:48:52;;;;;;;6.78;4.00;;;18.40;59.40;;;;;;4193006;28;20047;-65
2023/04/21 12:51:34;;;;;;;5.97;3.90;;;18.40;59.60;;;;;;4193792;28;20121;-65
2023/04/21 12:54:15;;;;;;;8.60;3.97;;;18.50;59.50;;;;;;4193306;28;20415;-66
2023/04/21 12:56:56;;;;;;;7.47;3.60;;;18.50;59.50;;;;;;4191835;28;20094;-67
2023/04/21 12:59:39;;;;;;;;;;;18.50;59.60;;;;;;4191023;28;20087;-66
2023/04/21 13:02:19;;;;;;;;;;;18.50;59.60;;;;;;4191500;28;20303;-66
2023/04/21 13:05:01;;;;;;;8.50;3.40;;;18.60;59.70;;;;;;4190538;28;19928;-65
2023/04/21 13:07:42;;;;;;;5.22;2.97;;;18.60;59.50;;;;;;4192684;28;20059;-65
2023/04/21 13:10:24;;;;;;;7.43;4.00;;;18.60;58.70;;;;;;4191568;28;20059;-66
2023/04/21 13:13:04;;;;;;;7.97;4.32;;;18.60;59.00;;;;;;4191074;28;20571;-66
2023/04/21 13:15:47;;;;;;;9.30;3.78;;;18.60;58.80;;;;;;4164127;28;20063;-66
2023/04/21 13:18:28;;;;;;;4.80;3.15;;;18.60;58.60;;;;;;4187334;28;20059;-66
2023/04/21 13:21:09;;;;;;;10.15;4.00;;;18.60;58.70;;;;;;4176132;28;20047;-65
2023/04/21 13:23:50;;;;;;;3.92;3.58;;;18.60;58.50;;;;;;4181806;28;20060;-66
2023/04/21 13:26:33;;;;;;;6.43;3.35;;;18.70;58.20;;;;;;4191237;28;20177;-66
2023/04/21 13:29:14;;;;;;;6.05;2.80;;;18.70;58.50;;;;;;4192927;28;20059;-67
2023/04/21 13:31:57;;;;;;;5.95;2.50;;;18.70;58.30;;;;;;4193204;28;20125;-65
2023/04/21 13:34:37;;;;;;;4.55;3.20;;;18.70;58.10;;;;;;4192673;28;20055;-66
2023/04/21 13:37:20;;;;;;;15.45;3.85;;;18.70;57.60;;;;;;4192276;28;20089;-67
2023/04/21 13:40:00;;;;;;;11.65;3.63;;;18.80;56.70;;;;;;4192949;28;20569;-65
2023/04/21 13:42:41;;;;;;;7.57;3.28;;;18.80;56.70;;;;;;4189027;28;20498;-68
2023/04/21 13:45:23;;;;;;;7.03;3.50;;;18.80;57.40;;;;;;4190420;28;20055;-67
2023/04/21 13:48:05;;;;;;;6.53;3.55;;;18.90;57.00;;;;;;4192624;28;20067;-67
2023/04/21 13:50:46;;;;;;;8.95;3.20;;;18.90;57.00;;;;;;4192150;28;20048;-67
2023/04/21 13:53:27;;;;;;;3.58;3.28;;;18.90;57.80;;;;;;4192741;28;20051;-65